Time;durP1;ratioP1;P1;durP2;ratioP2;P2;SDS_P1;SDS_P2;PMS_P1;PMS_P2;Temp;Humidity;BMP_temperature;BMP_pressure;BME280_temperature;BME280_humidity;BME280_pressure;Samples;Min_cycle;Max_cycle;Signal;HPM_P1;HPM_P2
2021/03/13 00:00:09;;;;;;;;;;;;;;;29.89;19.23;100843.97;5097168;28;846;-36
2021/03/13 00:02:35;;;;;;;;;;;;;;;29.73;18.57;100829.69;5097127;28;912;-36
2021/03/13 00:05:00;;;;;;;;;;;;;;;29.53;18.79;100833.09;5096919;28;997;-47
2021/03/13 00:07:25;;;;;;;;;;;;;;;30.03;18.91;100829.44;5097693;28;874;-35
2021/03/13 00:09:51;;;;;;;;;;;;;;;30.02;18.76;100822.38;5086685;28;939;-35
2021/03/13 00:12:16;;;;;;;;;;;;;;;30.24;18.79;100826.88;5076642;28;846;-35
2021/03/13 00:14:41;;;;;;;;;;;;;;;30.14;18.66;100825.34;5076816;28;830;-36
2021/03/13 00:17:07;;;;;;;;;;;;;;;30.01;18.80;100823.38;5077397;28;1901;-35
2021/03/13 00:19:32;;;;;;;;;;;;;;;30.09;19.04;100822.41;5076769;28;755;-36
2021/03/13 00:21:57;;;;;;;;;;;;;;;30.19;18.96;100828.28;5076489;28;831;-35
2021/03/13 00:24:23;;;;;;;;;;;;;;;30.43;18.38;100831.53;5083261;28;1009;-35
2021/03/13 00:26:48;;;;;;;;;;;;;;;30.10;19.00;100843.06;5096864;28;803;-36
2021/03/13 00:29:13;;;;;;;;;;;;;;;30.46;18.43;100835.72;5097368;28;813;-36
2021/03/13 00:31:38;;;;;;;;;;;;;;;30.70;18.16;100822.59;5096856;28;1297;-36
2021/03/13 00:34:04;;;;;;;;;;;;;;;30.88;17.90;100818.50;5092100;28;1068;-36
2021/03/13 00:36:29;;;;;;;;;;;;;;;30.87;17.96;100809.50;5076301;28;1975;-35
2021/03/13 00:38:54;;;;;;;;;;;;;;;30.15;19.11;100813.44;5076537;28;955;-35
2021/03/13 00:41:20;;;;;;;;;;;;;;;30.18;19.22;100815.75;5076719;28;836;-35
2021/03/13 00:43:45;;;;;;;;;;;;;;;30.22;18.89;100812.66;5076689;28;764;-36
2021/03/13 00:46:10;;;;;;;;;;;;;;;30.20;18.83;100807.44;5076785;28;815;-36
2021/03/13 00:48:36;;;;;;;;;;;;;;;30.30;18.99;100810.59;5076322;28;839;-36
2021/03/13 00:51:01;;;;;;;;;;;;;;;30.35;18.96;100807.28;5076244;28;820;-36
2021/03/13 00:53:26;;;;;;;;;;;;;;;30.23;18.88;100807.03;5076421;28;1009;-35
2021/03/13 00:55:51;;;;;;;;;;;;;;;30.10;19.00;100807.78;5094818;28;1905;-35
2021/03/13 00:58:17;;;;;;;;;;;;;;;30.19;19.13;100806.59;5096451;28;874;-35
2021/03/13 01:00:42;;;;;;;;;;;;;;;30.22;19.11;100807.22;5096329;28;834;-36
2021/03/13 01:03:08;;;;;;;;;;;;;;;30.42;19.03;100802.72;5096702;28;778;-36
2021/03/13 01:05:33;;;;;;;;;;;;;;;30.41;18.72;100792.88;5096781;28;787;-36
2021/03/13 01:07:58;;;;;;;;;;;;;;;30.10;18.94;100791.50;5096584;28;748;-46
2021/03/13 01:10:32;;;;;;;;;;;;;;;30.63;18.53;100795.44;5080935;28;950;-35
2021/03/13 01:12:57;;;;;;;;;;;;;;;30.79;18.33;100798.81;5076493;28;803;-36
2021/03/13 01:15:23;;;;;;;;;;;;;;;30.80;18.28;100797.78;5076394;28;775;-35
2021/03/13 01:17:48;;;;;;;;;;;;;;;30.28;19.08;100803.72;5076270;28;1899;-36
2021/03/13 01:20:13;;;;;;;;;;;;;;;30.16;19.25;100801.53;5076422;28;752;-36
2021/03/13 01:22:39;;;;;;;;;;;;;;;30.40;18.67;100799.38;5076281;28;859;-36
2021/03/13 01:25:05;;;;;;;;;;;;;;;29.84;19.34;100803.06;5088424;28;959;-36
2021/03/13 01:27:30;;;;;;;;;;;;;;;30.30;18.88;100802.47;5096418;28;784;-48
2021/03/13 01:29:55;;;;;;;;;;;;;;;30.59;18.70;100796.91;5096269;28;1202;-36
2021/03/13 01:32:21;;;;;;;;;;;;;;;30.70;18.39;100792.75;5096294;28;724;-36
2021/03/13 01:34:46;;;;;;;;;;;;;;;30.63;18.58;100800.06;5085795;28;1103;-36
2021/03/13 01:37:13;;;;;;;;;;;;;;;30.10;19.43;100799.66;5076157;28;1972;-36
2021/03/13 01:39:38;;;;;;;;;;;;;;;30.01;19.56;100806.28;5075587;28;1073;-36
2021/03/13 01:42:04;;;;;;;;;;;;;;;30.18;19.01;100801.34;5075998;28;810;-36
2021/03/13 01:44:29;;;;;;;;;;;;;;;29.92;19.26;100820.03;5075977;28;847;-40
2021/03/13 01:46:54;;;;;;;;;;;;;;;29.96;19.55;100814.19;5076516;28;775;-35
2021/03/13 01:49:22;;;;;;;;;;;;;;;29.80;19.93;100816.19;5061537;28;841;-37
2021/03/13 01:51:48;;;;;;;;;;;;;;;29.72;20.08;100817.19;5061412;28;828;-36
2021/03/13 01:54:13;;;;;;;;;;;;;;;29.82;19.79;100830.38;5084839;28;963;-36
2021/03/13 01:56:38;;;;;;;;;;;;;;;30.11;19.59;100819.47;5099791;28;1901;-36
2021/03/13 01:59:04;;;;;;;;;;;;;;;30.16;19.46;100817.81;5099840;28;776;-36
2021/03/13 02:01:29;;;;;;;;;;;;;;;30.26;19.31;100813.94;5100070;28;759;-35
2021/03/13 02:03:54;;;;;;;;;;;;;;;30.28;19.48;100806.44;5099614;28;740;-36
2021/03/13 02:06:20;;;;;;;;;;;;;;;30.26;19.33;100808.50;5099840;28;807;-35
2021/03/13 02:08:45;;;;;;;;;;;;;;;30.37;19.19;100807.06;5098020;28;1002;-35
2021/03/13 02:11:16;;;;;;;;;;;;;;;30.40;19.14;100798.53;5079107;28;739;-35
2021/03/13 02:13:45;;;;;;;;;;;;;;;30.72;18.54;100793.38;5079200;28;744;-36
2021/03/13 02:16:16;;;;;;;;;;;;;;;30.38;19.20;100793.28;5079160;28;1968;-36
2021/03/13 02:18:57;;;;;;;;;;;;;;;30.61;18.93;100797.56;5061187;28;919;-36
2021/03/13 02:21:27;;;;;;;;;;;;;;;30.28;19.36;100790.16;5061161;28;768;-36
2021/03/13 02:24:16;;;;;;;;;;;;;;;30.20;19.34;100793.88;5081157;28;987;-35
2021/03/13 02:26:43;;;;;;;;;;;;;;;30.18;19.53;100791.34;5087920;28;999;-35
2021/03/13 02:29:14;;;;;;;;;;;;;;;30.20;19.62;100783.00;5099454;28;810;-36
2021/03/13 02:31:40;;;;;;;;;;;;;;;30.46;18.85;100795.00;5098475;28;1291;-36
2021/03/13 02:34:06;;;;;;;;;;;;;;;30.17;19.04;100797.81;5093975;28;1099;-36
2021/03/13 02:36:31;;;;;;;;;;;;;;;30.42;19.00;100796.44;5061000;28;1973;-36
2021/03/13 02:39:06;;;;;;;;;;;;;;;30.85;18.50;100784.44;5061095;28;963;-36
2021/03/13 02:41:37;;;;;;;;;;;;;;;30.49;18.87;100788.31;5078779;28;752;-36
2021/03/13 02:44:02;;;;;;;;;;;;;;;30.38;19.19;100792.47;5060885;28;828;-37
2021/03/13 02:46:27;;;;;;;;;;;;;;;30.61;18.76;100794.00;5078033;28;834;-41
2021/03/13 02:48:53;;;;;;;;;;;;;;;30.78;18.51;100797.97;5078675;28;732;-36
2021/03/13 02:51:19;;;;;;;;;;;;;;;30.90;18.38;100805.53;5060718;28;783;-36
2021/03/13 02:53:47;;;;;;;;;;;;;;;30.27;19.39;100808.31;5061382;28;912;-36
2021/03/13 02:56:14;;;;;;;;;;;;;;;30.12;18.72;100802.16;5081147;28;1969;-36
2021/03/13 02:58:39;;;;;;;;;;;;;;;29.48;17.51;100808.44;5097483;28;795;-35
2021/03/13 03:01:05;;;;;;;;;;;;;;;28.93;19.03;100800.91;5098255;28;783;-36
2021/03/13 03:03:30;;;;;;;;;;;;;;;29.21;18.75;100787.41;5098576;28;778;-36
2021/03/13 03:05:55;;;;;;;;;;;;;;;29.29;18.57;100783.75;5080320;28;843;-36
2021/03/13 03:08:21;;;;;;;;;;;;;;;29.24;18.48;100780.78;5098265;28;763;-36
2021/03/13 03:10:46;;;;;;;;;;;;;;;29.37;18.21;100779.19;5079699;28;974;-35
2021/03/13 03:13:12;;;;;;;;;;;;;;;29.47;18.00;100782.41;5078045;28;771;-36
2021/03/13 03:15:37;;;;;;;;;;;;;;;29.59;17.89;100780.00;5059799;28;805;-36
2021/03/13 03:18:25;;;;;;;;;;;;;;;29.57;17.84;100784.75;5060133;28;1977;-36
2021/03/13 03:20:50;;;;;;;;;;;;;;;29.46;17.96;100784.25;5060584;28;783;-49
2021/03/13 03:23:15;;;;;;;;;;;;;;;29.55;17.84;100771.41;5059252;28;868;-36
2021/03/13 03:25:41;;;;;;;;;;;;;;;29.52;17.76;100762.81;5076959;28;1206;-37
2021/03/13 03:28:06;;;;;;;;;;;;;;;29.61;17.26;100771.66;5097824;28;740;-36
2021/03/13 03:30:32;;;;;;;;;;;;;;;29.86;16.95;100763.88;5097322;28;1252;-41
2021/03/13 03:32:58;;;;;;;;;;;;;;;29.90;16.58;100762.44;5098343;28;807;-39
2021/03/13 03:35:23;;;;;;;;;;;;;;;29.78;16.74;100769.47;5081830;28;1107;-37
2021/03/13 03:37:49;;;;;;;;;;;;;;;30.01;16.65;100773.75;5089943;28;1906;-36
2021/03/13 03:40:15;;;;;;;;;;;;;;;30.05;16.49;100769.56;5078876;28;809;-37
2021/03/13 03:43:19;;;;;;;;;;;;;;;30.16;16.41;100768.97;5097513;28;820;-37
2021/03/13 03:46:13;;;;;;;;;;;;;;;30.28;16.38;100774.69;5015682;28;1379;-36
2021/03/13 03:48:38;;;;;;;;;;;;;;;30.35;16.46;100782.84;5007224;28;1529;-36
2021/03/13 03:51:10;;;;;;;;;;;;;;;30.45;16.67;100778.94;5069510;28;911;-36
2021/03/13 03:53:39;;;;;;;;;;;;;;;30.64;16.29;100780.00;5078897;28;943;-37
2021/03/13 03:56:05;;;;;;;;;;;;;;;30.12;16.71;100785.88;5076757;28;1973;-36
2021/03/13 03:58:33;;;;;;;;;;;;;;;30.12;16.96;100786.72;5059134;28;814;-38
2021/03/13 04:00:58;;;;;;;;;;;;;;;30.22;16.97;100782.81;5077045;28;795;-38
2021/03/13 04:03:23;;;;;;;;;;;;;;;30.24;17.19;100784.31;5058731;28;879;-37
2021/03/13 04:05:49;;;;;;;;;;;;;;;30.21;17.14;100784.72;5077060;28;831;-37
2021/03/13 04:08:16;;;;;;;;;;;;;;;30.18;17.04;100779.63;5076739;28;940;-37
2021/03/13 04:10:42;;;;;;;;;;;;;;;30.47;16.60;100768.69;5093758;28;998;-38
2021/03/13 04:13:07;;;;;;;;;;;;;;;29.89;17.24;100763.47;5097259;28;751;-37
2021/03/13 04:15:32;;;;;;;;;;;;;;;30.68;16.54;100765.78;5078672;28;994;-37
2021/03/13 04:17:57;;;;;;;;;;;;;;;30.87;16.36;100759.78;5078561;28;1969;-36
2021/03/13 04:20:23;;;;;;;;;;;;;;;30.97;15.95;100749.34;5097070;28;727;-39
2021/03/13 04:22:49;;;;;;;;;;;;;;;30.36;16.44;100753.84;5096935;28;707;-39
2021/03/13 04:25:14;;;;;;;;;;;;;;;29.85;16.77;100755.94;5083240;28;1014;-42
2021/03/13 04:27:44;;;;;;;;;;;;;;;29.65;16.97;100757.50;5059075;28;1310;-39
2021/03/13 04:30:10;;;;;;;;;;;;;;;29.47;17.32;100752.59;5059365;28;1060;-39
2021/03/13 04:32:35;;;;;;;;;;;;;;;29.47;17.29;100747.16;5076375;28;828;-38
2021/03/13 04:35:01;;;;;;;;;;;;;;;29.56;17.32;100748.66;5084098;28;1171;-38
2021/03/13 04:37:26;;;;;;;;;;;;;;;29.53;16.93;100734.69;5098923;28;1902;-38
2021/03/13 04:39:51;;;;;;;;;;;;;;;29.50;17.14;100726.94;5077403;28;1017;-39
2021/03/13 04:42:17;;;;;;;;;;;;;;;29.62;17.25;100702.84;5058475;28;1279;-38
2021/03/13 04:44:42;;;;;;;;;;;;;;;29.69;17.45;100695.59;5076709;28;780;-38
2021/03/13 04:47:08;;;;;;;;;;;;;;;29.65;17.27;100697.03;5077147;28;785;-38
2021/03/13 04:49:33;;;;;;;;;;;;;;;26.59;16.99;100700.84;5058431;28;809;-39
2021/03/13 04:52:01;;;;;;;;;;;;;;;22.29;20.13;100697.13;5076312;28;756;-44
2021/03/13 04:54:30;;;;;;;;;;;;;;;25.98;17.13;100704.25;5058606;28;936;-39
2021/03/13 04:56:55;;;;;;;;;;;;;;;27.32;15.08;100710.38;5076494;28;1960;-39
2021/03/13 04:59:20;;;;;;;;;;;;;;;27.43;15.03;100714.44;5076102;28;846;-36
2021/03/13 05:01:46;;;;;;;;;;;;;;;27.47;14.68;100713.06;5076431;28;817;-39
2021/03/13 05:04:11;;;;;;;;;;;;;;;27.90;14.22;100702.59;5076760;28;1304;-44
2021/03/13 05:06:36;;;;;;;;;;;;;;;28.28;14.04;100707.81;5076287;28;751;-44
2021/03/13 05:09:02;;;;;;;;;;;;;;;28.19;13.90;100698.16;5080083;28;955;-45
2021/03/13 05:11:28;;;;;;;;;;;;;;;28.21;13.65;100693.41;5096665;28;728;-43
2021/03/13 05:13:53;;;;;;;;;;;;;;;27.53;14.18;100691.75;5096450;28;871;-44
2021/03/13 05:16:18;;;;;;;;;;;;;;;27.88;14.12;100702.78;5096578;28;1906;-44
2021/03/13 05:18:44;;;;;;;;;;;;;;;27.92;14.46;100714.91;5096385;28;891;-43
2021/03/13 05:21:09;;;;;;;;;;;;;;;28.03;14.78;100728.97;5096318;28;796;-43
2021/03/13 05:23:34;;;;;;;;;;;;;;;28.16;14.85;100739.13;5081320;28;799;-44
2021/03/13 05:26:00;;;;;;;;;;;;;;;27.99;14.89;100742.84;5080096;28;946;-44
2021/03/13 05:28:25;;;;;;;;;;;;;;;28.18;14.87;100750.56;5079898;28;823;-44
2021/03/13 05:30:50;;;;;;;;;;;;;;;28.20;14.85;100751.22;5079836;28;1175;-44
2021/03/13 05:33:15;;;;;;;;;;;;;;;28.42;15.53;100754.81;5080211;28;807;-43
2021/03/13 05:35:41;;;;;;;;;;;;;;;28.58;15.42;100745.63;5098035;28;1207;-43
2021/03/13 05:38:07;;;;;;;;;;;;;;;27.19;16.92;100747.97;5100531;28;1906;-42
2021/03/13 05:40:32;;;;;;;;;;;;;;;27.01;17.33;100749.09;5083396;28;946;-43
2021/03/13 05:42:57;;;;;;;;;;;;;;;26.64;18.10;100738.94;5079712;28;819;-43
2021/03/13 05:45:23;;;;;;;;;;;;;;;25.70;19.49;100734.34;5079554;28;554;-43
2021/03/13 05:47:48;;;;;;;;;;;;;;;25.87;19.24;100738.69;5061501;28;1515;-43
2021/03/13 05:50:14;;;;;;;;;;;;;;;26.61;18.42;100747.38;5079461;28;1469;-42
2021/03/13 05:52:40;;;;;;;;;;;;;;;27.13;17.98;100763.03;5079807;28;1082;-43
2021/03/13 05:55:07;;;;;;;;;;;;;;;27.42;17.63;100761.41;5091492;28;1461;-43
2021/03/13 05:57:32;;;;;;;;;;;;;;;27.21;18.14;100754.03;5099923;28;1914;-43
2021/03/13 05:59:57;;;;;;;;;;;;;;;26.53;18.79;100760.94;5099762;28;728;-38
2021/03/13 06:02:23;;;;;;;;;;;;;;;26.25;19.34;100764.97;5099821;28;816;-37
2021/03/13 06:04:51;;;;;;;;;;;;;;;26.94;18.51;100776.00;5099741;28;783;-38
2021/03/13 06:07:21;;;;;;;;;;;;;;;26.97;18.74;100782.88;5099655;28;800;-35
2021/03/13 06:09:49;;;;;;;;;;;;;;;26.17;19.55;100776.59;5088955;28;954;-33
2021/03/13 06:12:15;;;;;;;;;;;;;;;26.05;19.80;100775.31;5079306;28;757;-34
2021/03/13 06:14:41;;;;;;;;;;;;;;;26.61;19.30;100785.16;5061394;28;881;-33
2021/03/13 06:17:06;;;;;;;;;;;;;;;26.60;19.36;100772.69;5078536;28;1973;-34
2021/03/13 06:19:48;;;;;;;;;;;;;;;25.90;20.26;100769.81;5079236;28;807;-34
2021/03/13 06:22:32;;;;;;;;;;;;;;;25.33;20.91;100764.38;5079275;28;831;-40
2021/03/13 06:25:16;;;;;;;;;;;;;;;26.39;19.72;100762.56;5078830;28;979;-38
2021/03/13 06:27:45;;;;;;;;;;;;;;;26.84;19.15;100764.59;5079027;28;716;-38
2021/03/13 06:30:12;;;;;;;;;;;;;;;25.97;20.42;100765.44;5078672;28;1163;-40
2021/03/13 06:32:38;;;;;;;;;;;;;;;25.37;21.33;100772.97;5078484;28;843;-44
2021/03/13 06:35:22;;;;;;;;;;;;;;;26.12;20.61;100778.16;5091833;28;1183;-44
2021/03/13 06:37:48;;;;;;;;;;;;;;;26.47;20.06;100781.38;5098760;28;1975;-43
2021/03/13 06:40:25;;;;;;;;;;;;;;;25.70;20.91;100786.41;5084559;28;958;-44
2021/03/13 06:42:51;;;;;;;;;;;;;;;25.40;21.10;100776.16;5078853;28;788;-43
2021/03/13 06:45:19;;;;;;;;;;;;;;;26.42;20.04;100786.47;5078205;28;788;-38
2021/03/13 06:47:44;;;;;;;;;;;;;;;26.72;19.79;100797.41;5078662;28;1010;-42
2021/03/13 06:50:16;;;;;;;;;;;;;;;25.80;20.84;100795.13;5078262;28;840;-40
2021/03/13 06:52:47;;;;;;;;;;;;;;;26.15;20.72;100788.59;5078093;28;787;-39
2021/03/13 06:55:19;;;;;;;;;;;;;;;26.62;19.92;100794.94;5091655;28;1022;-41
2021/03/13 06:57:47;;;;;;;;;;;;;;;26.74;19.63;100789.97;5098831;28;1972;-41
2021/03/13 07:00:23;;;;;;;;;;;;;;;25.85;20.83;100786.53;5098354;28;804;-40
2021/03/13 07:02:49;;;;;;;;;;;;;;;25.84;21.20;100784.81;5098869;28;767;-40
2021/03/13 07:05:14;;;;;;;;;;;;;;;26.64;20.25;100784.78;5098478;28;720;-45
2021/03/13 07:07:40;;;;;;;;;;;;;;;26.51;20.16;100776.44;5080383;28;803;-43
2021/03/13 07:10:06;;;;;;;;;;;;;;;25.92;21.12;100784.78;5085706;28;954;-45
2021/03/13 07:12:35;;;;;;;;;;;;;;;25.96;21.01;100781.78;5077680;28;835;-42
2021/03/13 07:15:19;;;;;;;;;;;;;;;26.87;20.12;100772.34;5078028;28;816;-43
2021/03/13 07:17:48;;;;;;;;;;;;;;;25.97;21.00;100769.97;5078045;28;1977;-42
2021/03/13 07:20:14;;;;;;;;;;;;;;;25.43;21.77;100769.59;5077960;28;796;-41
2021/03/13 07:22:39;;;;;;;;;;;;;;;26.04;21.26;100765.56;5077981;28;835;-40
2021/03/13 07:25:05;;;;;;;;;;;;;;;26.74;20.30;100757.56;5090184;28;1087;-42
2021/03/13 07:27:30;;;;;;;;;;;;;;;25.73;21.51;100753.72;5097656;28;474;-40
2021/03/13 07:29:56;;;;;;;;;;;;;;;25.41;21.87;100758.97;5079746;28;1154;-40
2021/03/13 07:32:21;;;;;;;;;;;;;;;25.61;21.63;100760.47;5098096;28;523;-41
2021/03/13 07:34:47;;;;;;;;;;;;;;;25.51;21.86;100749.84;5069416;28;1119;-41
2021/03/13 07:37:16;;;;;;;;;;;;;;;25.47;21.78;100746.69;5077669;28;1909;-39
2021/03/13 07:39:41;;;;;;;;;;;;;;;25.51;21.89;100745.31;5077225;28;967;-37
2021/03/13 07:42:07;;;;;;;;;;;;;;;25.49;21.86;100754.59;5076989;28;831;-38
2021/03/13 07:44:32;;;;;;;;;;;;;;;26.33;20.96;100757.84;5077022;28;787;-37
2021/03/13 07:46:57;;;;;;;;;;;;;;;26.80;20.44;100757.88;5077397;28;816;-37
2021/03/13 07:49:23;;;;;;;;;;;;;;;27.13;19.98;100757.63;5077072;28;829;-38
2021/03/13 07:51:48;;;;;;;;;;;;;;;26.09;21.18;100746.16;5059509;28;763;-38
2021/03/13 07:54:13;;;;;;;;;;;;;;;26.00;21.47;100745.34;5064500;28;951;-37
2021/03/13 07:56:39;;;;;;;;;;;;;;;26.62;20.68;100749.09;5097263;28;1963;-38
2021/03/13 07:59:08;;;;;;;;;;;;;;;26.39;21.15;100755.28;5097528;28;495;-44
2021/03/13 08:01:46;;;;;;;;;;;;;;;25.98;21.66;100752.78;5079376;28;771;-37
2021/03/13 08:04:27;;;;;;;;;;;;;;;26.14;21.54;100746.47;5097562;28;791;-37
2021/03/13 08:06:58;;;;;;;;;;;;;;;25.85;22.00;100751.50;5079075;28;1294;-37
2021/03/13 08:09:24;;;;;;;;;;;;;;;25.84;21.95;100752.47;5090274;28;1022;-38
2021/03/13 08:11:49;;;;;;;;;;;;;;;25.62;22.26;100745.97;5076661;28;831;-36
2021/03/13 08:14:29;;;;;;;;;;;;;;;26.53;21.28;100755.53;5059250;28;752;-35
2021/03/13 08:16:54;;;;;;;;;;;;;;;26.88;20.73;100742.47;5076768;28;1901;-36
2021/03/13 08:19:26;;;;;;;;;;;;;;;26.69;20.82;100745.66;5059090;28;1247;-39
2021/03/13 08:22:08;;;;;;;;;;;;;;;25.71;21.93;100731.50;5076908;28;823;-37
2021/03/13 08:24:43;;;;;;;;;;;;;;;25.52;22.35;100728.16;5084601;28;1022;-37
2021/03/13 08:27:09;;;;;;;;;;;;;;;25.37;22.50;100727.19;5096860;28;843;-36
2021/03/13 08:29:47;;;;;;;;;;;;;;;25.35;22.65;100718.44;5096679;28;1116;-35
2021/03/13 08:32:13;;;;;;;;;;;;;;;25.45;22.30;100721.78;5078376;28;1689;-36
2021/03/13 08:34:38;;;;;;;;;;;;;;;26.11;21.77;100718.00;5087843;28;1134;-37
2021/03/13 08:37:17;;;;;;;;;;;;;;;26.09;21.69;100722.72;5076738;28;1909;-39
2021/03/13 08:39:42;;;;;;;;;;;;;;;25.88;22.09;100710.72;5076074;28;1003;-37
2021/03/13 08:42:07;;;;;;;;;;;;;;;25.88;22.22;100713.41;5058485;28;808;-36
2021/03/13 08:44:33;;;;;;;;;;;;;;;26.84;21.20;100721.41;5076671;28;851;-34
2021/03/13 08:46:59;;;;;;;;;;;;;;;27.07;20.91;100713.31;5076273;28;1088;-37
2021/03/13 08:49:25;;;;;;;;;;;;;;;26.64;21.21;100706.56;5076968;28;744;-38
2021/03/13 08:52:02;;;;;;;;;;;;;;;26.13;21.89;100709.72;5076169;28;784;-39
2021/03/13 08:54:40;;;;;;;;;;;;;;;26.37;21.94;100713.34;5083551;28;948;-45
2021/03/13 08:57:05;;;;;;;;;;;;;;;26.01;22.15;100711.97;5099236;28;1902;-41
2021/03/13 08:59:31;;;;;;;;;;;;;;;25.55;22.79;100711.66;5100847;28;771;-44
2021/03/13 09:02:15;;;;;;;;;;;;;;;25.75;22.63;100700.50;5100870;28;740;-46
2021/03/13 09:04:41;;;;;;;;;;;;;;;25.44;23.21;100696.69;5100984;28;968;-48
2021/03/13 09:07:06;;;;;;;;;;;;;;;25.39;23.14;100700.94;5100684;28;755;-42
2021/03/13 09:09:32;;;;;;;;;;;;;;;25.43;23.09;100696.88;5092444;28;946;-45
2021/03/13 09:11:59;;;;;;;;;;;;;;;26.65;21.74;100702.00;5080473;28;805;-47
2021/03/13 09:14:24;;;;;;;;;;;;;;;26.14;22.18;100704.16;5080219;28;735;-48
2021/03/13 09:16:50;;;;;;;;;;;;;;;26.07;22.31;100707.75;5080623;28;1965;-57
2021/03/13 09:19:16;;;;;;;;;;;;;;;26.27;22.15;100717.09;5080399;28;805;-51
2021/03/13 09:21:51;;;;;;;;;;;;;;;26.18;22.08;100718.13;5079909;28;976;-42
2021/03/13 09:24:18;;;;;;;;;;;;;;;26.18;22.37;100723.53;5085858;28;972;-48
2021/03/13 09:26:47;;;;;;;;;;;;;;;25.98;22.55;100715.88;5100499;28;755;-48
2021/03/13 09:29:12;;;;;;;;;;;;;;;26.75;21.59;100718.78;5099899;28;869;-48
2021/03/13 09:31:37;;;;;;;;;;;;;;;26.13;22.44;100717.81;5100159;28;1263;-45
2021/03/13 09:34:15;;;;;;;;;;;;;;;26.06;22.29;100716.88;5077620;28;1123;-45
2021/03/13 09:36:41;;;;;;;;;;;;;;;25.88;22.75;100712.56;5079756;28;1976;-53
2021/03/13 09:39:06;;;;;;;;;;;;;;;26.39;21.90;100695.13;5084193;28;1002;-47
2021/03/13 09:41:32;;;;;;;;;;;;;;;25.81;22.64;100698.94;5099714;28;838;-49
2021/03/13 09:43:57;;;;;;;;;;;;;;;25.86;22.68;100706.53;5099888;28;823;-55
2021/03/13 09:46:22;;;;;;;;;;;;;;;26.29;22.20;100696.16;5081990;28;759;-50
2021/03/13 09:48:48;;;;;;;;;;;;;;;26.15;22.15;100689.69;5081656;28;1283;-54
2021/03/13 09:51:13;;;;;;;;;;;;;;;25.75;22.82;100689.72;5099950;28;742;-52
2021/03/13 09:53:41;;;;;;;;;;;;;;;25.72;22.90;100682.00;5081198;28;938;-45
2021/03/13 09:56:07;;;;;;;;;;;;;;;26.75;21.69;100681.00;5079475;28;1959;-44
2021/03/13 09:58:33;;;;;;;;;;;;;;;25.74;21.23;100685.34;5079296;28;751;-43
2021/03/13 10:00:58;;;;;;;;;;;;;;;25.68;21.35;100672.56;5079407;28;735;-46
2021/03/13 10:03:23;;;;;;;;;;;;;;;25.89;22.19;100669.25;5079552;28;748;-44
2021/03/13 10:05:52;;;;;;;;;;;;;;;25.83;22.38;100658.34;5079238;28;811;-44
2021/03/13 10:08:18;;;;;;;;;;;;;;;25.32;23.03;100663.09;5079145;28;847;-43
2021/03/13 10:10:51;;;;;;;;;;;;;;;25.22;23.15;100654.34;5097023;28;955;-42
2021/03/13 10:13:17;;;;;;;;;;;;;;;26.04;22.03;100655.88;5099517;28;837;-42
2021/03/13 10:15:43;;;;;;;;;;;;;;;25.16;23.29;100663.94;5099787;28;813;-43
2021/03/13 10:18:13;;;;;;;;;;;;;;;25.06;23.44;100656.06;5099392;28;1984;-42
2021/03/13 10:20:45;;;;;;;;;;;;;;;26.07;21.97;100667.31;5080583;28;803;-43
2021/03/13 10:23:16;;;;;;;;;;;;;;;25.60;22.67;100659.09;5099457;28;748;-46
2021/03/13 10:26:02;;;;;;;;;;;;;;;25.54;22.84;100656.09;5081620;28;990;-38
2021/03/13 10:28:27;;;;;;;;;;;;;;;26.26;22.17;100658.75;5068212;28;2116;-47
2021/03/13 10:31:02;;;;;;;;;;;;;;;26.71;21.29;100658.09;5078642;28;1363;-44
2021/03/13 10:33:28;;;;;;;;;;;;;;;26.33;21.68;100652.69;5078767;28;752;-37
2021/03/13 10:35:54;;;;;;;;;;;;;;;25.71;22.65;100661.44;5098771;28;1274;-47
2021/03/13 10:38:20;;;;;;;;;;;;;;;25.69;22.74;100660.78;5098603;28;1910;-38
2021/03/13 10:40:46;;;;;;;;;;;;;;;25.39;23.16;100655.16;5096034;28;1537;-39
2021/03/13 10:43:25;;;;;;;;;;;;;;;25.22;23.46;100655.22;5098886;28;832;-40
2021/03/13 10:45:56;;;;;;;;;;;;;;;26.23;22.27;100647.50;5098954;28;823;-50
2021/03/13 10:48:22;;;;;;;;;;;;;;;26.69;21.63;100645.81;5098644;28;760;-49
2021/03/13 10:50:47;;;;;;;;;;;;;;;26.70;21.63;100636.69;5099164;28;795;-53
2021/03/13 10:53:25;;;;;;;;;;;;;;;25.52;23.11;100635.75;5098930;28;767;-40
2021/03/13 10:55:54;;;;;;;;;;;;;;;25.53;23.29;100632.03;5079336;28;946;-51
2021/03/13 10:58:23;;;;;;;;;;;;;;;25.13;23.75;100632.00;5078407;28;1959;-48
2021/03/13 11:00:48;;;;;;;;;;;;;;;25.07;23.78;100628.16;5078869;28;763;-54
2021/03/13 11:03:13;;;;;;;;;;;;;;;25.66;23.32;100634.19;5078346;28;807;-42
2021/03/13 11:05:39;;;;;;;;;;;;;;;26.51;21.97;100641.56;5078410;28;770;-51
2021/03/13 11:08:04;;;;;;;;;;;;;;;26.86;21.71;100636.53;5078469;28;826;-44
2021/03/13 11:10:30;;;;;;;;;;;;;;;26.32;21.98;100632.94;5077738;28;947;-38
2021/03/13 11:12:55;;;;;;;;;;;;;;;25.68;22.90;100634.84;5060243;28;842;-45
2021/03/13 11:15:21;;;;;;;;;;;;;;;25.61;22.98;100626.59;5078033;28;752;-42
2021/03/13 11:17:47;;;;;;;;;;;;;;;25.70;22.88;100627.44;5077800;28;1953;-47
2021/03/13 11:20:13;;;;;;;;;;;;;;;25.73;22.94;100628.94;5077067;28;751;-42
2021/03/13 11:22:38;;;;;;;;;;;;;;;26.18;22.31;100623.78;5077740;28;819;-47
2021/03/13 11:25:04;;;;;;;;;;;;;;;26.76;21.82;100620.63;5090029;28;947;-43
2021/03/13 11:27:29;;;;;;;;;;;;;;;26.95;21.66;100622.97;5098155;28;759;-42
2021/03/13 11:29:55;;;;;;;;;;;;;;;26.17;22.28;100624.81;5097596;28;1272;-44
2021/03/13 11:32:21;;;;;;;;;;;;;;;25.85;22.80;100621.28;5098113;28;747;-44
2021/03/13 11:34:46;;;;;;;;;;;;;;;25.66;23.18;100618.88;5087321;28;1103;-43
2021/03/13 11:37:11;;;;;;;;;;;;;;;25.63;23.02;100626.47;5077354;28;1992;-44
2021/03/13 11:39:36;;;;;;;;;;;;;;;25.53;23.33;100621.25;5085918;28;995;-47
2021/03/13 11:42:02;;;;;;;;;;;;;;;25.34;23.62;100617.97;5097833;28;807;-41
2021/03/13 11:44:27;;;;;;;;;;;;;;;25.66;23.14;100610.78;5097835;28;759;-42
2021/03/13 11:46:53;;;;;;;;;;;;;;;25.31;23.61;100604.84;5097821;28;779;-42
2021/03/13 11:49:18;;;;;;;;;;;;;;;25.26;23.80;100607.22;5097658;28;783;-42
2021/03/13 11:51:43;;;;;;;;;;;;;;;25.28;23.74;100607.88;5097494;28;763;-42
2021/03/13 11:54:09;;;;;;;;;;;;;;;25.50;23.32;100600.91;5092658;28;910;-43
2021/03/13 11:56:34;;;;;;;;;;;;;;;25.28;23.67;100608.75;5059137;28;1902;-43
2021/03/13 11:58:59;;;;;;;;;;;;;;;25.63;23.45;100597.69;5077034;28;764;-44
2021/03/13 12:01:25;;;;;;;;;;;;;;;25.46;23.44;100604.13;5077159;28;819;-42
2021/03/13 12:03:50;;;;;;;;;;;;;;;25.59;23.20;100596.31;5076902;28;804;-42
2021/03/13 12:06:15;;;;;;;;;;;;;;;25.39;23.51;100598.59;5076975;28;751;-44
2021/03/13 12:08:41;;;;;;;;;;;;;;;25.41;23.45;100601.94;5077607;28;951;-44
2021/03/13 12:11:06;;;;;;;;;;;;;;;25.19;23.79;100590.94;5097264;28;842;-49
2021/03/13 12:13:31;;;;;;;;;;;;;;;25.34;23.69;100591.03;5096785;28;814;-44
2021/03/13 12:15:57;;;;;;;;;;;;;;;25.15;23.88;100589.59;5096999;28;728;-46
2021/03/13 12:18:22;;;;;;;;;;;;;;;24.88;24.37;100597.03;5097221;28;1906;-44
2021/03/13 12:20:48;;;;;;;;;;;;;;;25.09;24.02;100587.63;5096541;28;829;-43
2021/03/13 12:23:13;;;;;;;;;;;;;;;25.13;23.92;100581.72;5097259;28;842;-46
2021/03/13 12:25:38;;;;;;;;;;;;;;;25.17;23.87;100584.91;5080111;28;991;-47
2021/03/13 12:28:04;;;;;;;;;;;;;;;25.22;23.84;100578.97;5076865;28;786;-50
2021/03/13 12:30:29;;;;;;;;;;;;;;;25.24;23.74;100579.66;5076764;28;1324;-43
2021/03/13 12:32:56;;;;;;;;;;;;;;;25.22;23.87;100573.59;5076560;28;740;-52
2021/03/13 12:35:21;;;;;;;;;;;;;;;25.03;24.17;100573.00;5092072;28;1104;-42
2021/03/13 12:37:46;;;;;;;;;;;;;;;25.77;23.27;100581.78;5096662;28;1922;-48
2021/03/13 12:40:12;;;;;;;;;;;;;;;25.92;22.85;100581.84;5083124;28;1509;-46
2021/03/13 12:42:37;;;;;;;;;;;;;;;26.04;22.74;100584.97;5076751;28;771;-46
2021/03/13 12:45:03;;;;;;;;;;;;;;;26.27;22.53;100582.25;5076817;28;771;-45
2021/03/13 12:47:29;;;;;;;;;;;;;;;25.89;22.83;100584.91;5076141;28;879;-47
2021/03/13 12:49:55;;;;;;;;;;;;;;;25.53;23.19;100584.41;5076651;28;732;-42
2021/03/13 12:52:20;;;;;;;;;;;;;;;25.31;23.48;100583.31;5076634;28;771;-44